sensor_id;sensor_type;location;lat;lon;timestamp;P1;durP1;ratioP1;P2;durP2;ratioP2
21152;SDS011;10734;44.792;20.482;2023-11-19T00:02:22;15.93;;;8.18;;
21152;SDS011;10734;44.792;20.482;2023-11-19T00:04:48;18.80;;;7.28;;
21152;SDS011;10734;44.792;20.482;2023-11-19T00:07:15;16.98;;;8.48;;
21152;SDS011;10734;44.792;20.482;2023-11-19T00:09:44;16.00;;;8.95;;
21152;SDS011;10734;44.792;20.482;2023-11-19T00:12:11;14.70;;;8.57;;
21152;SDS011;10734;44.792;20.482;2023-11-19T00:14:37;17.02;;;8.82;;
21152;SDS011;10734;44.792;20.482;2023-11-19T00:17:04;20.77;;;8.52;;
21152;SDS011;10734;44.792;20.482;2023-11-19T00:19:31;14.98;;;8.60;;
21152;SDS011;10734;44.792;20.482;2023-11-19T00:21:57;18.77;;;9.43;;
21152;SDS011;10734;44.792;20.482;2023-11-19T00:24:29;13.38;;;6.88;;
21152;SDS011;10734;44.792;20.482;2023-11-19T00:26:56;17.20;;;9.02;;
21152;SDS011;10734;44.792;20.482;2023-11-19T00:29:23;18.65;;;9.18;;
21152;SDS011;10734;44.792;20.482;2023-11-19T00:31:50;20.40;;;9.60;;
21152;SDS011;10734;44.792;20.482;2023-11-19T00:34:16;21.92;;;9.38;;
21152;SDS011;10734;44.792;20.482;2023-11-19T00:36:47;16.40;;;8.45;;
21152;SDS011;10734;44.792;20.482;2023-11-19T00:39:14;18.13;;;8.73;;
21152;SDS011;10734;44.792;20.482;2023-11-19T00:41:41;27.35;;;9.55;;
21152;SDS011;10734;44.792;20.482;2023-11-19T00:44:08;19.98;;;9.32;;
21152;SDS011;10734;44.792;20.482;2023-11-19T00:46:34;17.15;;;9.32;;
21152;SDS011;10734;44.792;20.482;2023-11-19T00:49:01;18.27;;;8.82;;
21152;SDS011;10734;44.792;20.482;2023-11-19T00:51:27;20.27;;;9.00;;
21152;SDS011;10734;44.792;20.482;2023-11-19T00:53:54;14.50;;;7.75;;
21152;SDS011;10734;44.792;20.482;2023-11-19T00:56:21;17.52;;;8.52;;
21152;SDS011;10734;44.792;20.482;2023-11-19T00:58:48;19.65;;;8.25;;
21152;SDS011;10734;44.792;20.482;2023-11-19T01:01:15;20.73;;;9.23;;
21152;SDS011;10734;44.792;20.482;2023-11-19T01:03:41;17.10;;;8.18;;
21152;SDS011;10734;44.792;20.482;2023-11-19T01:06:08;17.58;;;8.68;;
21152;SDS011;10734;44.792;20.482;2023-11-19T01:08:35;13.52;;;8.32;;
21152;SDS011;10734;44.792;20.482;2023-11-19T01:11:02;15.23;;;8.40;;
21152;SDS011;10734;44.792;20.482;2023-11-19T01:13:29;17.77;;;8.70;;
21152;SDS011;10734;44.792;20.482;2023-11-19T01:15:55;18.63;;;8.85;;
21152;SDS011;10734;44.792;20.482;2023-11-19T01:18:23;14.02;;;8.30;;
21152;SDS011;10734;44.792;20.482;2023-11-19T01:20:49;16.48;;;8.18;;
21152;SDS011;10734;44.792;20.482;2023-11-19T01:23:16;14.98;;;8.57;;
21152;SDS011;10734;44.792;20.482;2023-11-19T01:25:42;12.70;;;7.38;;
21152;SDS011;10734;44.792;20.482;2023-11-19T01:28:09;14.00;;;8.18;;
21152;SDS011;10734;44.792;20.482;2023-11-19T01:30:35;17.58;;;8.63;;
21152;SDS011;10734;44.792;20.482;2023-11-19T01:33:02;14.93;;;7.97;;
21152;SDS011;10734;44.792;20.482;2023-11-19T01:35:29;12.23;;;7.38;;
21152;SDS011;10734;44.792;20.482;2023-11-19T01:37:55;17.17;;;8.15;;
21152;SDS011;10734;44.792;20.482;2023-11-19T01:40:22;14.00;;;8.02;;
21152;SDS011;10734;44.792;20.482;2023-11-19T01:42:48;14.73;;;7.63;;
21152;SDS011;10734;44.792;20.482;2023-11-19T01:45:21;22.20;;;7.70;;
21152;SDS011;10734;44.792;20.482;2023-11-19T01:47:48;15.60;;;8.65;;
21152;SDS011;10734;44.792;20.482;2023-11-19T01:50:15;13.55;;;8.13;;
21152;SDS011;10734;44.792;20.482;2023-11-19T01:52:41;17.75;;;8.63;;
21152;SDS011;10734;44.792;20.482;2023-11-19T01:55:08;19.85;;;8.10;;
21152;SDS011;10734;44.792;20.482;2023-11-19T01:57:36;20.17;;;7.65;;
21152;SDS011;10734;44.792;20.482;2023-11-19T02:00:07;17.02;;;7.97;;
21152;SDS011;10734;44.792;20.482;2023-11-19T02:02:38;16.60;;;8.80;;
21152;SDS011;10734;44.792;20.482;2023-11-19T02:05:06;21.05;;;7.88;;
21152;SDS011;10734;44.792;20.482;2023-11-19T02:07:33;14.55;;;8.15;;
21152;SDS011;10734;44.792;20.482;2023-11-19T02:10:00;13.70;;;8.25;;
21152;SDS011;10734;44.792;20.482;2023-11-19T02:12:28;12.18;;;7.07;;
21152;SDS011;10734;44.792;20.482;2023-11-19T02:14:54;21.10;;;8.52;;
21152;SDS011;10734;44.792;20.482;2023-11-19T02:17:27;13.02;;;7.55;;
21152;SDS011;10734;44.792;20.482;2023-11-19T02:19:54;12.63;;;7.10;;
21152;SDS011;10734;44.792;20.482;2023-11-19T02:22:21;12.73;;;7.70;;
21152;SDS011;10734;44.792;20.482;2023-11-19T02:24:48;13.90;;;8.35;;
21152;SDS011;10734;44.792;20.482;2023-11-19T02:27:17;14.40;;;8.05;;
21152;SDS011;10734;44.792;20.482;2023-11-19T02:29:47;14.55;;;7.80;;
21152;SDS011;10734;44.792;20.482;2023-11-19T02:32:15;14.95;;;7.35;;
21152;SDS011;10734;44.792;20.482;2023-11-19T02:34:42;15.80;;;7.40;;
21152;SDS011;10734;44.792;20.482;2023-11-19T02:37:08;15.90;;;7.35;;
21152;SDS011;10734;44.792;20.482;2023-11-19T02:39:36;13.05;;;8.23;;
21152;SDS011;10734;44.792;20.482;2023-11-19T02:42:03;13.40;;;7.80;;
21152;SDS011;10734;44.792;20.482;2023-11-19T02:44:30;12.73;;;7.35;;
21152;SDS011;10734;44.792;20.482;2023-11-19T02:46:56;14.45;;;8.15;;
21152;SDS011;10734;44.792;20.482;2023-11-19T02:49:25;14.23;;;7.32;;
21152;SDS011;10734;44.792;20.482;2023-11-19T02:51:55;19.20;;;7.55;;
21152;SDS011;10734;44.792;20.482;2023-11-19T02:54:22;13.40;;;7.65;;
21152;SDS011;10734;44.792;20.482;2023-11-19T02:56:53;12.70;;;7.03;;
21152;SDS011;10734;44.792;20.482;2023-11-19T02:59:26;14.77;;;7.30;;
21152;SDS011;10734;44.792;20.482;2023-11-19T03:02:05;12.82;;;7.07;;
21152;SDS011;10734;44.792;20.482;2023-11-19T03:04:33;11.55;;;7.20;;
21152;SDS011;10734;44.792;20.482;2023-11-19T03:07:00;12.30;;;7.57;;
21152;SDS011;10734;44.792;20.482;2023-11-19T03:09:26;12.50;;;6.80;;
21152;SDS011;10734;44.792;20.482;2023-11-19T03:11:53;12.98;;;7.28;;
21152;SDS011;10734;44.792;20.482;2023-11-19T03:14:19;13.18;;;8.07;;
21152;SDS011;10734;44.792;20.482;2023-11-19T03:16:46;12.82;;;8.23;;
21152;SDS011;10734;44.792;20.482;2023-11-19T03:19:13;14.35;;;8.05;;
21152;SDS011;10734;44.792;20.482;2023-11-19T03:21:51;13.82;;;7.97;;
21152;SDS011;10734;44.792;20.482;2023-11-19T03:24:17;16.80;;;8.35;;
21152;SDS011;10734;44.792;20.482;2023-11-19T03:26:48;18.90;;;7.93;;
21152;SDS011;10734;44.792;20.482;2023-11-19T03:29:16;16.00;;;8.85;;
21152;SDS011;10734;44.792;20.482;2023-11-19T03:31:43;14.23;;;7.95;;
21152;SDS011;10734;44.792;20.482;2023-11-19T03:34:10;15.45;;;8.13;;
21152;SDS011;10734;44.792;20.482;2023-11-19T03:36:36;18.15;;;8.25;;
21152;SDS011;10734;44.792;20.482;2023-11-19T03:39:03;14.95;;;8.23;;
21152;SDS011;10734;44.792;20.482;2023-11-19T03:41:29;15.48;;;8.10;;
21152;SDS011;10734;44.792;20.482;2023-11-19T03:44:07;18.05;;;9.73;;
21152;SDS011;10734;44.792;20.482;2023-11-19T03:46:33;17.83;;;9.80;;
21152;SDS011;10734;44.792;20.482;2023-11-19T03:49:01;20.58;;;8.95;;
21152;SDS011;10734;44.792;20.482;2023-11-19T03:51:30;20.35;;;9.05;;
21152;SDS011;10734;44.792;20.482;2023-11-19T03:53:57;19.60;;;9.48;;
21152;SDS011;10734;44.792;20.482;2023-11-19T03:56:23;17.77;;;9.63;;
21152;SDS011;10734;44.792;20.482;2023-11-19T03:58:50;16.67;;;9.32;;
21152;SDS011;10734;44.792;20.482;2023-11-19T04:01:16;17.20;;;9.05;;
21152;SDS011;10734;44.792;20.482;2023-11-19T04:03:43;15.85;;;9.23;;
21152;SDS011;10734;44.792;20.482;2023-11-19T04:06:13;20.20;;;9.27;;
21152;SDS011;10734;44.792;20.482;2023-11-19T04:08:40;16.33;;;9.10;;
21152;SDS011;10734;44.792;20.482;2023-11-19T04:11:07;17.13;;;9.20;;
21152;SDS011;10734;44.792;20.482;2023-11-19T04:13:35;16.52;;;8.30;;
21152;SDS011;10734;44.792;20.482;2023-11-19T04:16:01;12.48;;;7.70;;
21152;SDS011;10734;44.792;20.482;2023-11-19T04:18:28;14.38;;;7.90;;
21152;SDS011;10734;44.792;20.482;2023-11-19T04:20:54;17.30;;;8.50;;
21152;SDS011;10734;44.792;20.482;2023-11-19T04:23:21;16.60;;;8.50;;
21152;SDS011;10734;44.792;20.482;2023-11-19T04:25:48;17.45;;;8.85;;
21152;SDS011;10734;44.792;20.482;2023-11-19T04:28:14;14.88;;;8.68;;
21152;SDS011;10734;44.792;20.482;2023-11-19T04:30:41;17.95;;;8.77;;
21152;SDS011;10734;44.792;20.482;2023-11-19T04:33:08;16.35;;;8.18;;
21152;SDS011;10734;44.792;20.482;2023-11-19T04:35:34;14.05;;;8.63;;
21152;SDS011;10734;44.792;20.482;2023-11-19T04:38:01;12.07;;;7.68;;
21152;SDS011;10734;44.792;20.482;2023-11-19T04:40:27;14.27;;;8.40;;
21152;SDS011;10734;44.792;20.482;2023-11-19T04:42:54;17.90;;;9.05;;
21152;SDS011;10734;44.792;20.482;2023-11-19T04:45:20;18.67;;;10.63;;
21152;SDS011;10734;44.792;20.482;2023-11-19T04:47:47;19.15;;;9.73;;
21152;SDS011;10734;44.792;20.482;2023-11-19T04:50:13;18.95;;;8.82;;
21152;SDS011;10734;44.792;20.482;2023-11-19T04:52:40;19.80;;;9.20;;
21152;SDS011;10734;44.792;20.482;2023-11-19T04:55:07;18.38;;;9.63;;
21152;SDS011;10734;44.792;20.482;2023-11-19T04:57:34;19.95;;;11.70;;
21152;SDS011;10734;44.792;20.482;2023-11-19T05:00:00;20.85;;;11.70;;
21152;SDS011;10734;44.792;20.482;2023-11-19T05:02:45;22.15;;;14.25;;
21152;SDS011;10734;44.792;20.482;2023-11-19T05:05:12;23.40;;;14.50;;
21152;SDS011;10734;44.792;20.482;2023-11-19T05:07:39;21.40;;;12.18;;
21152;SDS011;10734;44.792;20.482;2023-11-19T05:10:06;24.48;;;12.35;;
21152;SDS011;10734;44.792;20.482;2023-11-19T05:12:33;22.20;;;11.63;;
21152;SDS011;10734;44.792;20.482;2023-11-19T05:15:00;66.22;;;31.33;;
21152;SDS011;10734;44.792;20.482;2023-11-19T05:17:26;27.17;;;14.30;;
21152;SDS011;10734;44.792;20.482;2023-11-19T05:19:53;25.88;;;11.43;;
21152;SDS011;10734;44.792;20.482;2023-11-19T05:22:20;20.90;;;10.88;;
21152;SDS011;10734;44.792;20.482;2023-11-19T05:24:47;18.45;;;10.48;;
21152;SDS011;10734;44.792;20.482;2023-11-19T05:27:15;22.40;;;11.43;;
21152;SDS011;10734;44.792;20.482;2023-11-19T05:29:42;21.83;;;11.82;;
21152;SDS011;10734;44.792;20.482;2023-11-19T05:32:10;18.88;;;11.15;;
21152;SDS011;10734;44.792;20.482;2023-11-19T05:34:36;19.00;;;10.20;;
21152;SDS011;10734;44.792;20.482;2023-11-19T05:37:03;20.08;;;10.00;;
21152;SDS011;10734;44.792;20.482;2023-11-19T05:39:32;22.67;;;10.38;;
21152;SDS011;10734;44.792;20.482;2023-11-19T05:41:58;18.77;;;9.70;;
21152;SDS011;10734;44.792;20.482;2023-11-19T05:44:25;25.00;;;11.38;;
21152;SDS011;10734;44.792;20.482;2023-11-19T05:46:52;25.58;;;11.20;;
21152;SDS011;10734;44.792;20.482;2023-11-19T05:49:18;18.35;;;9.73;;
21152;SDS011;10734;44.792;20.482;2023-11-19T05:51:45;22.83;;;10.18;;
21152;SDS011;10734;44.792;20.482;2023-11-19T05:54:12;18.42;;;10.35;;
21152;SDS011;10734;44.792;20.482;2023-11-19T05:56:39;19.50;;;10.68;;
21152;SDS011;10734;44.792;20.482;2023-11-19T05:59:06;23.15;;;9.50;;
21152;SDS011;10734;44.792;20.482;2023-11-19T06:01:41;15.45;;;8.80;;
21152;SDS011;10734;44.792;20.482;2023-11-19T06:04:08;17.77;;;10.40;;
21152;SDS011;10734;44.792;20.482;2023-11-19T06:06:35;18.73;;;10.32;;
21152;SDS011;10734;44.792;20.482;2023-11-19T06:09:01;19.85;;;12.13;;
21152;SDS011;10734;44.792;20.482;2023-11-19T06:11:38;22.20;;;11.20;;
21152;SDS011;10734;44.792;20.482;2023-11-19T06:14:05;18.42;;;11.00;;
21152;SDS011;10734;44.792;20.482;2023-11-19T06:16:32;20.98;;;10.60;;
21152;SDS011;10734;44.792;20.482;2023-11-19T06:18:59;25.65;;;13.15;;
21152;SDS011;10734;44.792;20.482;2023-11-19T06:21:26;25.63;;;14.93;;
21152;SDS011;10734;44.792;20.482;2023-11-19T06:23:52;30.52;;;15.25;;
21152;SDS011;10734;44.792;20.482;2023-11-19T06:26:19;25.50;;;13.43;;
21152;SDS011;10734;44.792;20.482;2023-11-19T06:28:48;38.13;;;17.13;;
21152;SDS011;10734;44.792;20.482;2023-11-19T06:31:14;28.65;;;15.00;;
21152;SDS011;10734;44.792;20.482;2023-11-19T06:34:01;32.45;;;15.32;;
21152;SDS011;10734;44.792;20.482;2023-11-19T06:36:27;33.33;;;16.15;;
21152;SDS011;10734;44.792;20.482;2023-11-19T06:38:54;27.63;;;14.05;;
21152;SDS011;10734;44.792;20.482;2023-11-19T06:41:21;25.33;;;12.70;;
21152;SDS011;10734;44.792;20.482;2023-11-19T06:43:47;21.27;;;10.43;;
21152;SDS011;10734;44.792;20.482;2023-11-19T06:46:15;16.60;;;9.82;;
21152;SDS011;10734;44.792;20.482;2023-11-19T06:48:43;18.85;;;10.45;;
21152;SDS011;10734;44.792;20.482;2023-11-19T06:51:11;21.35;;;10.07;;
21152;SDS011;10734;44.792;20.482;2023-11-19T06:53:38;61.90;;;21.95;;
21152;SDS011;10734;44.792;20.482;2023-11-19T06:56:17;33.58;;;13.50;;
21152;SDS011;10734;44.792;20.482;2023-11-19T06:58:44;25.58;;;12.77;;
21152;SDS011;10734;44.792;20.482;2023-11-19T07:01:11;24.30;;;12.10;;
21152;SDS011;10734;44.792;20.482;2023-11-19T07:03:37;19.77;;;10.43;;
21152;SDS011;10734;44.792;20.482;2023-11-19T07:06:04;16.42;;;9.80;;
21152;SDS011;10734;44.792;20.482;2023-11-19T07:08:31;15.95;;;9.38;;
21152;SDS011;10734;44.792;20.482;2023-11-19T07:10:58;18.25;;;9.95;;
21152;SDS011;10734;44.792;20.482;2023-11-19T07:13:24;15.45;;;9.15;;
21152;SDS011;10734;44.792;20.482;2023-11-19T07:15:55;17.48;;;8.77;;
21152;SDS011;10734;44.792;20.482;2023-11-19T07:18:22;17.75;;;10.00;;
21152;SDS011;10734;44.792;20.482;2023-11-19T07:20:48;22.85;;;10.65;;
21152;SDS011;10734;44.792;20.482;2023-11-19T07:23:15;25.95;;;12.80;;
21152;SDS011;10734;44.792;20.482;2023-11-19T07:25:44;17.23;;;8.98;;
21152;SDS011;10734;44.792;20.482;2023-11-19T07:28:14;13.30;;;8.23;;
21152;SDS011;10734;44.792;20.482;2023-11-19T07:30:41;12.35;;;7.82;;
21152;SDS011;10734;44.792;20.482;2023-11-19T07:33:08;14.00;;;7.22;;
21152;SDS011;10734;44.792;20.482;2023-11-19T07:35:35;24.20;;;9.15;;
21152;SDS011;10734;44.792;20.482;2023-11-19T07:38:01;12.60;;;7.80;;
21152;SDS011;10734;44.792;20.482;2023-11-19T07:40:28;22.38;;;10.02;;
21152;SDS011;10734;44.792;20.482;2023-11-19T07:42:55;21.25;;;10.45;;
21152;SDS011;10734;44.792;20.482;2023-11-19T07:45:21;14.15;;;8.23;;
21152;SDS011;10734;44.792;20.482;2023-11-19T07:47:48;15.05;;;8.43;;
21152;SDS011;10734;44.792;20.482;2023-11-19T07:50:15;14.77;;;8.18;;
21152;SDS011;10734;44.792;20.482;2023-11-19T07:52:43;17.55;;;7.90;;
21152;SDS011;10734;44.792;20.482;2023-11-19T07:55:09;19.40;;;8.15;;
21152;SDS011;10734;44.792;20.482;2023-11-19T07:57:36;13.32;;;8.55;;
21152;SDS011;10734;44.792;20.482;2023-11-19T08:00:03;14.82;;;8.30;;
21152;SDS011;10734;44.792;20.482;2023-11-19T08:02:30;12.30;;;7.63;;
21152;SDS011;10734;44.792;20.482;2023-11-19T08:04:57;14.95;;;8.73;;
21152;SDS011;10734;44.792;20.482;2023-11-19T08:07:23;17.33;;;7.45;;
21152;SDS011;10734;44.792;20.482;2023-11-19T08:09:50;12.68;;;8.10;;
21152;SDS011;10734;44.792;20.482;2023-11-19T08:12:16;18.27;;;7.93;;
21152;SDS011;10734;44.792;20.482;2023-11-19T08:14:43;12.55;;;7.38;;
21152;SDS011;10734;44.792;20.482;2023-11-19T08:17:10;15.07;;;7.90;;
21152;SDS011;10734;44.792;20.482;2023-11-19T08:19:37;15.30;;;8.20;;
21152;SDS011;10734;44.792;20.482;2023-11-19T08:22:03;14.98;;;8.00;;
21152;SDS011;10734;44.792;20.482;2023-11-19T08:24:30;13.07;;;8.07;;
21152;SDS011;10734;44.792;20.482;2023-11-19T08:26:56;13.55;;;7.82;;
21152;SDS011;10734;44.792;20.482;2023-11-19T08:29:26;12.52;;;7.28;;
21152;SDS011;10734;44.792;20.482;2023-11-19T08:31:53;13.65;;;8.70;;
21152;SDS011;10734;44.792;20.482;2023-11-19T08:34:20;13.18;;;9.32;;
21152;SDS011;10734;44.792;20.482;2023-11-19T08:36:49;11.88;;;8.07;;
21152;SDS011;10734;44.792;20.482;2023-11-19T08:39:16;12.90;;;7.40;;
21152;SDS011;10734;44.792;20.482;2023-11-19T08:41:44;11.93;;;8.10;;
21152;SDS011;10734;44.792;20.482;2023-11-19T08:44:11;13.85;;;8.98;;
21152;SDS011;10734;44.792;20.482;2023-11-19T08:46:38;16.65;;;8.30;;
21152;SDS011;10734;44.792;20.482;2023-11-19T08:49:06;10.38;;;7.40;;
21152;SDS011;10734;44.792;20.482;2023-11-19T08:51:34;16.48;;;7.75;;
21152;SDS011;10734;44.792;20.482;2023-11-19T08:54:01;14.73;;;8.52;;
21152;SDS011;10734;44.792;20.482;2023-11-19T08:56:27;13.38;;;7.95;;
21152;SDS011;10734;44.792;20.482;2023-11-19T08:58:58;16.77;;;7.23;;
21152;SDS011;10734;44.792;20.482;2023-11-19T09:01:25;12.15;;;8.05;;
21152;SDS011;10734;44.792;20.482;2023-11-19T09:03:52;9.32;;;6.80;;
21152;SDS011;10734;44.792;20.482;2023-11-19T09:06:18;13.93;;;7.15;;
21152;SDS011;10734;44.792;20.482;2023-11-19T09:08:45;15.43;;;7.18;;
21152;SDS011;10734;44.792;20.482;2023-11-19T09:11:12;9.93;;;6.65;;
21152;SDS011;10734;44.792;20.482;2023-11-19T09:13:38;11.82;;;6.15;;
21152;SDS011;10734;44.792;20.482;2023-11-19T09:16:05;10.68;;;6.32;;
21152;SDS011;10734;44.792;20.482;2023-11-19T09:18:31;11.30;;;6.35;;
21152;SDS011;10734;44.792;20.482;2023-11-19T09:20:58;8.50;;;6.13;;
21152;SDS011;10734;44.792;20.482;2023-11-19T09:23:25;10.18;;;6.22;;
21152;SDS011;10734;44.792;20.482;2023-11-19T09:25:51;8.95;;;6.00;;
21152;SDS011;10734;44.792;20.482;2023-11-19T09:28:18;10.10;;;6.03;;
21152;SDS011;10734;44.792;20.482;2023-11-19T09:30:44;8.75;;;5.78;;
21152;SDS011;10734;44.792;20.482;2023-11-19T09:33:11;8.63;;;5.65;;
21152;SDS011;10734;44.792;20.482;2023-11-19T09:35:38;7.85;;;5.18;;
21152;SDS011;10734;44.792;20.482;2023-11-19T09:38:04;7.75;;;6.18;;
21152;SDS011;10734;44.792;20.482;2023-11-19T09:40:31;9.35;;;6.80;;
21152;SDS011;10734;44.792;20.482;2023-11-19T09:42:58;12.32;;;7.28;;
21152;SDS011;10734;44.792;20.482;2023-11-19T09:45:25;8.88;;;6.07;;
21152;SDS011;10734;44.792;20.482;2023-11-19T09:47:53;9.95;;;5.55;;
21152;SDS011;10734;44.792;20.482;2023-11-19T09:50:21;7.05;;;5.18;;
21152;SDS011;10734;44.792;20.482;2023-11-19T09:52:48;7.95;;;5.28;;
21152;SDS011;10734;44.792;20.482;2023-11-19T09:55:15;7.40;;;4.60;;
21152;SDS011;10734;44.792;20.482;2023-11-19T09:57:41;6.15;;;4.70;;
21152;SDS011;10734;44.792;20.482;2023-11-19T10:00:09;6.28;;;4.53;;
21152;SDS011;10734;44.792;20.482;2023-11-19T10:02:37;6.28;;;4.55;;
21152;SDS011;10734;44.792;20.482;2023-11-19T10:05:06;9.20;;;4.78;;
21152;SDS011;10734;44.792;20.482;2023-11-19T10:07:33;9.52;;;4.50;;
21152;SDS011;10734;44.792;20.482;2023-11-19T10:10:00;6.68;;;4.95;;
21152;SDS011;10734;44.792;20.482;2023-11-19T10:12:27;9.48;;;5.35;;
21152;SDS011;10734;44.792;20.482;2023-11-19T10:14:57;9.60;;;5.53;;
21152;SDS011;10734;44.792;20.482;2023-11-19T10:17:33;11.00;;;5.65;;
21152;SDS011;10734;44.792;20.482;2023-11-19T10:20:00;6.25;;;4.35;;
21152;SDS011;10734;44.792;20.482;2023-11-19T10:22:27;6.25;;;4.43;;
21152;SDS011;10734;44.792;20.482;2023-11-19T10:24:54;6.03;;;4.38;;
21152;SDS011;10734;44.792;20.482;2023-11-19T10:27:23;8.18;;;5.85;;
21152;SDS011;10734;44.792;20.482;2023-11-19T10:29:50;6.18;;;4.32;;
21152;SDS011;10734;44.792;20.482;2023-11-19T10:32:16;5.07;;;3.78;;
21152;SDS011;10734;44.792;20.482;2023-11-19T10:34:52;6.07;;;4.18;;
21152;SDS011;10734;44.792;20.482;2023-11-19T10:37:28;7.78;;;4.35;;
21152;SDS011;10734;44.792;20.482;2023-11-19T10:39:59;5.63;;;4.03;;
21152;SDS011;10734;44.792;20.482;2023-11-19T10:42:26;7.90;;;4.82;;
21152;SDS011;10734;44.792;20.482;2023-11-19T10:44:53;10.15;;;5.32;;
21152;SDS011;10734;44.792;20.482;2023-11-19T10:47:19;12.55;;;6.45;;
21152;SDS011;10734;44.792;20.482;2023-11-19T10:50:04;10.05;;;5.97;;
21152;SDS011;10734;44.792;20.482;2023-11-19T10:52:30;8.55;;;5.13;;
21152;SDS011;10734;44.792;20.482;2023-11-19T10:54:57;12.07;;;6.65;;
21152;SDS011;10734;44.792;20.482;2023-11-19T10:57:26;12.02;;;5.30;;
21152;SDS011;10734;44.792;20.482;2023-11-19T10:59:55;8.90;;;6.30;;
21152;SDS011;10734;44.792;20.482;2023-11-19T11:02:28;6.43;;;4.75;;
21152;SDS011;10734;44.792;20.482;2023-11-19T11:04:56;8.88;;;5.53;;
21152;SDS011;10734;44.792;20.482;2023-11-19T11:07:24;9.57;;;5.88;;
21152;SDS011;10734;44.792;20.482;2023-11-19T11:10:05;13.90;;;7.53;;
21152;SDS011;10734;44.792;20.482;2023-11-19T11:12:35;11.32;;;6.72;;
21152;SDS011;10734;44.792;20.482;2023-11-19T11:15:03;10.20;;;6.50;;
21152;SDS011;10734;44.792;20.482;2023-11-19T11:17:30;6.25;;;4.95;;
21152;SDS011;10734;44.792;20.482;2023-11-19T11:19:58;7.60;;;5.40;;
21152;SDS011;10734;44.792;20.482;2023-11-19T11:22:25;9.85;;;5.32;;
21152;SDS011;10734;44.792;20.482;2023-11-19T11:25:06;8.68;;;5.30;;
21152;SDS011;10734;44.792;20.482;2023-11-19T11:27:43;8.25;;;4.95;;
21152;SDS011;10734;44.792;20.482;2023-11-19T11:30:34;11.27;;;6.18;;
21152;SDS011;10734;44.792;20.482;2023-11-19T11:33:06;9.05;;;5.78;;
21152;SDS011;10734;44.792;20.482;2023-11-19T11:38:12;10.00;;;5.65;;
21152;SDS011;10734;44.792;20.482;2023-11-19T11:40:40;9.05;;;5.20;;
21152;SDS011;10734;44.792;20.482;2023-11-19T11:45:52;8.38;;;5.03;;
21152;SDS011;10734;44.792;20.482;2023-11-19T11:48:19;10.52;;;5.07;;
21152;SDS011;10734;44.792;20.482;2023-11-19T11:50:50;9.88;;;5.13;;
21152;SDS011;10734;44.792;20.482;2023-11-19T11:53:28;10.60;;;5.40;;
21152;SDS011;10734;44.792;20.482;2023-11-19T11:55:56;12.05;;;6.05;;
21152;SDS011;10734;44.792;20.482;2023-11-19T11:58:26;7.97;;;4.97;;
21152;SDS011;10734;44.792;20.482;2023-11-19T12:00:57;11.88;;;4.88;;
21152;SDS011;10734;44.792;20.482;2023-11-19T12:03:26;9.20;;;5.18;;
21152;SDS011;10734;44.792;20.482;2023-11-19T12:05:53;8.80;;;5.13;;
21152;SDS011;10734;44.792;20.482;2023-11-19T12:08:20;10.85;;;4.63;;
21152;SDS011;10734;44.792;20.482;2023-11-19T12:10:52;9.32;;;4.38;;
21152;SDS011;10734;44.792;20.482;2023-11-19T12:13:20;9.05;;;4.90;;
21152;SDS011;10734;44.792;20.482;2023-11-19T12:18:26;12.70;;;3.92;;
21152;SDS011;10734;44.792;20.482;2023-11-19T12:20:53;9.85;;;3.75;;
21152;SDS011;10734;44.792;20.482;2023-11-19T12:23:19;10.90;;;3.65;;
21152;SDS011;10734;44.792;20.482;2023-11-19T12:25:46;8.23;;;4.30;;
21152;SDS011;10734;44.792;20.482;2023-11-19T12:28:13;7.03;;;3.78;;
21152;SDS011;10734;44.792;20.482;2023-11-19T12:30:40;12.73;;;4.78;;
21152;SDS011;10734;44.792;20.482;2023-11-19T12:33:10;15.68;;;5.00;;
21152;SDS011;10734;44.792;20.482;2023-11-19T12:35:40;8.63;;;5.13;;
21152;SDS011;10734;44.792;20.482;2023-11-19T12:38:07;10.55;;;6.03;;
21152;SDS011;10734;44.792;20.482;2023-11-19T12:40:33;10.02;;;5.30;;
21152;SDS011;10734;44.792;20.482;2023-11-19T12:43:00;12.02;;;5.40;;
21152;SDS011;10734;44.792;20.482;2023-11-19T12:45:36;10.20;;;5.82;;
21152;SDS011;10734;44.792;20.482;2023-11-19T12:48:07;9.00;;;5.57;;
21152;SDS011;10734;44.792;20.482;2023-11-19T12:53:20;8.07;;;3.80;;
21152;SDS011;10734;44.792;20.482;2023-11-19T12:55:47;7.75;;;3.97;;
21152;SDS011;10734;44.792;20.482;2023-11-19T12:58:32;6.45;;;3.60;;
21152;SDS011;10734;44.792;20.482;2023-11-19T13:01:06;6.40;;;4.00;;
21152;SDS011;10734;44.792;20.482;2023-11-19T13:03:33;8.32;;;3.90;;
21152;SDS011;10734;44.792;20.482;2023-11-19T13:06:01;9.30;;;3.65;;
21152;SDS011;10734;44.792;20.482;2023-11-19T13:08:28;7.57;;;4.30;;
21152;SDS011;10734;44.792;20.482;2023-11-19T13:10:54;7.80;;;4.15;;
21152;SDS011;10734;44.792;20.482;2023-11-19T13:13:21;8.55;;;4.07;;
21152;SDS011;10734;44.792;20.482;2023-11-19T13:15:48;6.15;;;3.67;;
21152;SDS011;10734;44.792;20.482;2023-11-19T13:18:16;5.60;;;3.20;;
21152;SDS011;10734;44.792;20.482;2023-11-19T13:20:42;8.32;;;4.35;;
21152;SDS011;10734;44.792;20.482;2023-11-19T13:23:09;8.27;;;4.28;;
21152;SDS011;10734;44.792;20.482;2023-11-19T13:25:43;10.18;;;3.53;;
21152;SDS011;10734;44.792;20.482;2023-11-19T13:28:11;13.60;;;4.25;;
21152;SDS011;10734;44.792;20.482;2023-11-19T13:30:38;8.30;;;4.30;;
21152;SDS011;10734;44.792;20.482;2023-11-19T13:33:04;10.07;;;4.28;;
21152;SDS011;10734;44.792;20.482;2023-11-19T13:35:31;8.50;;;4.13;;
21152;SDS011;10734;44.792;20.482;2023-11-19T13:37:58;4.68;;;3.28;;
21152;SDS011;10734;44.792;20.482;2023-11-19T13:40:24;7.00;;;3.92;;
21152;SDS011;10734;44.792;20.482;2023-11-19T13:42:51;8.40;;;3.78;;
21152;SDS011;10734;44.792;20.482;2023-11-19T13:45:18;8.68;;;4.13;;
21152;SDS011;10734;44.792;20.482;2023-11-19T13:47:46;5.43;;;3.38;;
21152;SDS011;10734;44.792;20.482;2023-11-19T13:50:14;9.15;;;3.78;;
21152;SDS011;10734;44.792;20.482;2023-11-19T13:52:41;5.15;;;3.15;;
21152;SDS011;10734;44.792;20.482;2023-11-19T13:55:09;7.22;;;4.10;;
21152;SDS011;10734;44.792;20.482;2023-11-19T13:57:36;7.72;;;4.75;;
21152;SDS011;10734;44.792;20.482;2023-11-19T14:00:03;7.10;;;3.83;;
21152;SDS011;10734;44.792;20.482;2023-11-19T14:02:33;7.57;;;4.63;;
21152;SDS011;10734;44.792;20.482;2023-11-19T14:05:00;10.75;;;5.10;;
21152;SDS011;10734;44.792;20.482;2023-11-19T14:07:26;12.32;;;5.03;;
21152;SDS011;10734;44.792;20.482;2023-11-19T14:09:54;7.95;;;4.78;;
21152;SDS011;10734;44.792;20.482;2023-11-19T14:12:20;11.30;;;5.53;;
21152;SDS011;10734;44.792;20.482;2023-11-19T14:14:47;11.02;;;5.10;;
21152;SDS011;10734;44.792;20.482;2023-11-19T14:17:13;9.27;;;5.20;;
21152;SDS011;10734;44.792;20.482;2023-11-19T14:19:42;6.32;;;4.22;;
21152;SDS011;10734;44.792;20.482;2023-11-19T14:22:08;11.82;;;5.63;;
21152;SDS011;10734;44.792;20.482;2023-11-19T14:24:35;23.92;;;10.80;;
21152;SDS011;10734;44.792;20.482;2023-11-19T14:27:02;18.20;;;7.70;;
21152;SDS011;10734;44.792;20.482;2023-11-19T14:29:29;21.13;;;12.18;;
21152;SDS011;10734;44.792;20.482;2023-11-19T14:31:58;15.57;;;8.05;;
21152;SDS011;10734;44.792;20.482;2023-11-19T14:34:25;14.52;;;8.10;;
21152;SDS011;10734;44.792;20.482;2023-11-19T14:36:52;17.77;;;7.47;;
21152;SDS011;10734;44.792;20.482;2023-11-19T14:39:20;15.48;;;8.80;;